sensor_id;sensor_type;location;lat;lon;timestamp;pressure;altitude;pressure_sealevel;temperature;humidity
36062;BME280;22123;52.412;20.970;2023-03-04T00:00:52;100409.69;;;-0.96;100.00
36062;BME280;22123;52.412;20.970;2023-03-04T00:03:18;100317.56;;;-1.43;100.00
36062;BME280;22123;52.412;20.970;2023-03-04T00:05:58;100360.97;;;-1.19;100.00
36062;BME280;22123;52.412;20.970;2023-03-04T00:08:24;100337.53;;;-1.38;100.00
36062;BME280;22123;52.412;20.970;2023-03-04T00:10:50;100317.97;;;-1.49;100.00
36062;BME280;22123;52.412;20.970;2023-03-04T00:13:16;100144.94;;;-2.51;100.00
36062;BME280;22123;52.412;20.970;2023-03-04T00:15:42;100203.56;;;-2.04;100.00
36062;BME280;22123;52.412;20.970;2023-03-04T00:18:08;100306.69;;;-1.38;100.00
36062;BME280;22123;52.412;20.970;2023-03-04T00:20:34;100245.16;;;-1.80;100.00
36062;BME280;22123;52.412;20.970;2023-03-04T00:22:59;100321.28;;;-1.32;100.00
36062;BME280;22123;52.412;20.970;2023-03-04T00:25:25;100290.94;;;-1.40;100.00
36062;BME280;22123;52.412;20.970;2023-03-04T00:27:51;100291.59;;;-1.36;100.00
36062;BME280;22123;52.412;20.970;2023-03-04T00:30:17;100240.97;;;-1.70;100.00
36062;BME280;22123;52.412;20.970;2023-03-04T00:32:43;99971.19;;;-3.23;100.00
36062;BME280;22123;52.412;20.970;2023-03-04T00:35:16;100305.28;;;-1.16;100.00
36062;BME280;22123;52.412;20.970;2023-03-04T00:37:42;100275.16;;;-1.27;100.00
36062;BME280;22123;52.412;20.970;2023-03-04T00:40:09;100355.41;;;-0.75;100.00
36062;BME280;22123;52.412;20.970;2023-03-04T00:42:35;100241.72;;;-1.41;100.00
36062;BME280;22123;52.412;20.970;2023-03-04T00:45:01;100209.25;;;-1.55;100.00
36062;BME280;22123;52.412;20.970;2023-03-04T00:47:27;100326.84;;;-0.82;100.00
36062;BME280;22123;52.412;20.970;2023-03-04T00:49:53;100183.03;;;-1.59;100.00
36062;BME280;22123;52.412;20.970;2023-03-04T00:52:19;100210.91;;;-1.27;100.00
36062;BME280;22123;52.412;20.970;2023-03-04T00:54:44;100239.03;;;-1.13;100.00
36062;BME280;22123;52.412;20.970;2023-03-04T00:57:10;100058.31;;;-2.15;100.00
36062;BME280;22123;52.412;20.970;2023-03-04T00:59:36;100212.19;;;-1.20;100.00
36062;BME280;22123;52.412;20.970;2023-03-04T01:02:02;100188.09;;;-1.28;100.00
36062;BME280;22123;52.412;20.970;2023-03-04T01:04:28;100227.22;;;-1.08;100.00
36062;BME280;22123;52.412;20.970;2023-03-04T01:06:54;100193.03;;;-1.36;100.00
36062;BME280;22123;52.412;20.970;2023-03-04T01:09:20;100233.56;;;-0.97;100.00
36062;BME280;22123;52.412;20.970;2023-03-04T01:11:46;100160.09;;;-1.31;100.00
36062;BME280;22123;52.412;20.970;2023-03-04T01:14:11;100176.50;;;-1.13;100.00
36062;BME280;22123;52.412;20.970;2023-03-04T01:16:37;100073.63;;;-1.67;100.00
36062;BME280;22123;52.412;20.970;2023-03-04T01:19:03;100224.38;;;-0.79;100.00
36062;BME280;22123;52.412;20.970;2023-03-04T01:21:29;100004.97;;;-1.93;100.00
36062;BME280;22123;52.412;20.970;2023-03-04T01:23:55;100113.91;;;-1.25;100.00
36062;BME280;22123;52.412;20.970;2023-03-04T01:26:21;100131.81;;;-1.16;100.00
36062;BME280;22123;52.412;20.970;2023-03-04T01:28:47;100102.19;;;-1.21;100.00
36062;BME280;22123;52.412;20.970;2023-03-04T01:31:13;99986.19;;;-1.88;100.00
36062;BME280;22123;52.412;20.970;2023-03-04T01:33:39;100197.31;;;-0.57;100.00
36062;BME280;22123;52.412;20.970;2023-03-04T01:36:05;100091.09;;;-1.26;100.00
36062;BME280;22123;52.412;20.970;2023-03-04T01:38:31;100147.41;;;-0.87;100.00
36062;BME280;22123;52.412;20.970;2023-03-04T01:40:57;100065.75;;;-1.42;100.00
36062;BME280;22123;52.412;20.970;2023-03-04T01:43:25;100182.31;;;-0.56;100.00
36062;BME280;22123;52.412;20.970;2023-03-04T01:45:53;100170.03;;;-0.57;100.00
36062;BME280;22123;52.412;20.970;2023-03-04T01:48:29;100096.38;;;-1.13;100.00
36062;BME280;22123;52.412;20.970;2023-03-04T01:50:56;100088.34;;;-1.12;100.00
36062;BME280;22123;52.412;20.970;2023-03-04T01:53:24;100176.78;;;-0.53;100.00
36062;BME280;22123;52.412;20.970;2023-03-04T01:56:02;100091.97;;;-1.13;100.00
36062;BME280;22123;52.412;20.970;2023-03-04T01:58:35;100095.00;;;-1.06;100.00
36062;BME280;22123;52.412;20.970;2023-03-04T02:01:01;100110.75;;;-0.92;100.00
36062;BME280;22123;52.412;20.970;2023-03-04T02:03:27;100159.56;;;-0.72;100.00
36062;BME280;22123;52.412;20.970;2023-03-04T02:05:54;100122.78;;;-0.88;100.00
36062;BME280;22123;52.412;20.970;2023-03-04T02:08:22;100159.56;;;-0.59;100.00
36062;BME280;22123;52.412;20.970;2023-03-04T02:10:48;100089.81;;;-1.08;100.00
36062;BME280;22123;52.412;20.970;2023-03-04T02:13:16;100091.09;;;-1.00;100.00
36062;BME280;22123;52.412;20.970;2023-03-04T02:15:43;100142.66;;;-0.69;100.00
36062;BME280;22123;52.412;20.970;2023-03-04T02:26:26;100079.16;;;-1.19;100.00
36062;BME280;22123;52.412;20.970;2023-03-04T02:28:53;99995.50;;;-1.70;100.00
36062;BME280;22123;52.412;20.970;2023-03-04T02:33:50;100000.34;;;-1.51;100.00
36062;BME280;22123;52.412;20.970;2023-03-04T02:36:17;100090.47;;;-0.91;100.00
36062;BME280;22123;52.412;20.970;2023-03-04T02:38:43;100072.50;;;-1.12;100.00
36062;BME280;22123;52.412;20.970;2023-03-04T02:41:13;99954.66;;;-1.64;100.00
36062;BME280;22123;52.412;20.970;2023-03-04T02:43:43;100060.84;;;-0.96;100.00
36062;BME280;22123;52.412;20.970;2023-03-04T02:46:11;100143.44;;;-0.43;100.00
36062;BME280;22123;52.412;20.970;2023-03-04T02:48:38;100058.94;;;-0.94;100.00
36062;BME280;22123;52.412;20.970;2023-03-04T02:51:04;100142.41;;;-0.40;100.00
36062;BME280;22123;52.412;20.970;2023-03-04T02:53:30;100018.50;;;-1.20;100.00
36062;BME280;22123;52.412;20.970;2023-03-04T02:56:02;100002.38;;;-1.29;100.00
36062;BME280;22123;52.412;20.970;2023-03-04T02:58:28;100050.19;;;-0.95;100.00
36062;BME280;22123;52.412;20.970;2023-03-04T03:00:54;100048.28;;;-0.93;100.00
36062;BME280;22123;52.412;20.970;2023-03-04T03:03:20;99963.94;;;-1.46;100.00
36062;BME280;22123;52.412;20.970;2023-03-04T03:05:46;100057.75;;;-0.77;100.00
36062;BME280;22123;52.412;20.970;2023-03-04T03:08:12;100126.91;;;-0.33;100.00
36062;BME280;22123;52.412;20.970;2023-03-04T03:10:38;100078.44;;;-0.58;100.00
36062;BME280;22123;52.412;20.970;2023-03-04T03:13:04;100051.63;;;-0.78;100.00
36062;BME280;22123;52.412;20.970;2023-03-04T03:15:30;99932.56;;;-1.37;100.00
36062;BME280;22123;52.412;20.970;2023-03-04T03:17:56;99939.72;;;-1.40;100.00
36062;BME280;22123;52.412;20.970;2023-03-04T03:20:22;100060.69;;;-0.69;100.00
36062;BME280;22123;52.412;20.970;2023-03-04T03:22:48;99968.84;;;-1.15;100.00
36062;BME280;22123;52.412;20.970;2023-03-04T03:25:14;100023.09;;;-0.85;100.00
36062;BME280;22123;52.412;20.970;2023-03-04T03:27:41;100083.91;;;-0.48;100.00
36062;BME280;22123;52.412;20.970;2023-03-04T03:30:10;99970.72;;;-1.05;100.00
36062;BME280;22123;52.412;20.970;2023-03-04T03:32:36;99977.16;;;-1.09;100.00
36062;BME280;22123;52.412;20.970;2023-03-04T03:35:02;100104.66;;;-0.18;100.00
36062;BME280;22123;52.412;20.970;2023-03-04T03:37:28;99907.41;;;-1.30;100.00
36062;BME280;22123;52.412;20.970;2023-03-04T03:39:54;100016.38;;;-0.65;100.00
36062;BME280;22123;52.412;20.970;2023-03-04T03:42:20;100083.72;;;-0.21;100.00
36062;BME280;22123;52.412;20.970;2023-03-04T03:44:46;100032.63;;;-0.59;100.00
36062;BME280;22123;52.412;20.970;2023-03-04T03:47:13;100018.69;;;-0.61;100.00
36062;BME280;22123;52.412;20.970;2023-03-04T03:49:39;99996.94;;;-0.77;100.00
36062;BME280;22123;52.412;20.970;2023-03-04T03:52:05;100026.56;;;-0.48;100.00
36062;BME280;22123;52.412;20.970;2023-03-04T03:54:30;99966.19;;;-0.78;100.00
36062;BME280;22123;52.412;20.970;2023-03-04T03:56:56;100046.78;;;-0.23;100.00
36062;BME280;22123;52.412;20.970;2023-03-04T03:59:22;99980.81;;;-0.61;100.00
36062;BME280;22123;52.412;20.970;2023-03-04T04:01:48;100004.41;;;-0.34;100.00
36062;BME280;22123;52.412;20.970;2023-03-04T04:04:14;99994.22;;;-0.51;100.00
36062;BME280;22123;52.412;20.970;2023-03-04T04:06:40;100012.03;;;-0.42;100.00
36062;BME280;22123;52.412;20.970;2023-03-04T04:09:06;99975.53;;;-0.61;100.00
36062;BME280;22123;52.412;20.970;2023-03-04T04:11:32;99919.28;;;-0.88;100.00
36062;BME280;22123;52.412;20.970;2023-03-04T04:13:57;99973.19;;;-0.53;100.00
36062;BME280;22123;52.412;20.970;2023-03-04T04:16:23;100062.97;;;-0.03;100.00
36062;BME280;22123;52.412;20.970;2023-03-04T04:18:49;99663.13;;;-2.46;100.00
36062;BME280;22123;52.412;20.970;2023-03-04T04:21:15;99976.31;;;-0.48;100.00
36062;BME280;22123;52.412;20.970;2023-03-04T04:23:41;100063.75;;;0.10;100.00
36062;BME280;22123;52.412;20.970;2023-03-04T04:26:07;100072.66;;;0.09;100.00
36062;BME280;22123;52.412;20.970;2023-03-04T04:28:33;100012.84;;;-0.29;100.00
36062;BME280;22123;52.412;20.970;2023-03-04T04:30:59;100055.81;;;0.10;100.00
36062;BME280;22123;52.412;20.970;2023-03-04T04:33:26;99925.63;;;-0.66;100.00
36062;BME280;22123;52.412;20.970;2023-03-04T04:35:52;99941.03;;;-0.60;100.00
36062;BME280;22123;52.412;20.970;2023-03-04T04:38:18;99891.22;;;-0.77;100.00
36062;BME280;22123;52.412;20.970;2023-03-04T04:40:44;99916.31;;;-0.59;100.00
36062;BME280;22123;52.412;20.970;2023-03-04T04:43:10;99937.63;;;-0.49;100.00
36062;BME280;22123;52.412;20.970;2023-03-04T04:45:36;99909.38;;;-0.73;100.00
36062;BME280;22123;52.412;20.970;2023-03-04T04:48:01;100001.03;;;-0.01;100.00
36062;BME280;22123;52.412;20.970;2023-03-04T04:50:27;99949.34;;;-0.29;100.00
36062;BME280;22123;52.412;20.970;2023-03-04T04:52:54;100011.25;;;0.04;100.00
36062;BME280;22123;52.412;20.970;2023-03-04T04:55:20;99985.75;;;-0.08;100.00
36062;BME280;22123;52.412;20.970;2023-03-04T04:57:46;100000.66;;;-0.07;100.00
36062;BME280;22123;52.412;20.970;2023-03-04T05:00:12;100025.72;;;0.11;100.00
36062;BME280;22123;52.412;20.970;2023-03-04T05:02:38;100034.81;;;0.31;100.00
36062;BME280;22123;52.412;20.970;2023-03-04T05:05:06;100049.75;;;0.32;100.00
36062;BME280;22123;52.412;20.970;2023-03-04T05:07:33;99972.47;;;-0.20;100.00
36062;BME280;22123;52.412;20.970;2023-03-04T05:09:59;100034.94;;;0.30;100.00
36062;BME280;22123;52.412;20.970;2023-03-04T05:12:25;99991.56;;;0.08;100.00
36062;BME280;22123;52.412;20.970;2023-03-04T05:14:50;99856.97;;;-0.79;100.00
36062;BME280;22123;52.412;20.970;2023-03-04T05:17:16;99980.97;;;0.08;100.00
36062;BME280;22123;52.412;20.970;2023-03-04T05:19:42;99920.47;;;-0.32;100.00
36062;BME280;22123;52.412;20.970;2023-03-04T05:22:08;99964.22;;;-0.04;100.00
36062;BME280;22123;52.412;20.970;2023-03-04T05:24:34;99948.81;;;-0.10;100.00
36062;BME280;22123;52.412;20.970;2023-03-04T05:27:00;99822.72;;;-0.80;100.00
36062;BME280;22123;52.412;20.970;2023-03-04T05:29:27;99936.63;;;-0.24;100.00
36062;BME280;22123;52.412;20.970;2023-03-04T05:31:53;100023.25;;;0.32;100.00
36062;BME280;22123;52.412;20.970;2023-03-04T05:34:18;99996.03;;;0.19;100.00
36062;BME280;22123;52.412;20.970;2023-03-04T05:36:44;99953.50;;;-0.02;100.00
36062;BME280;22123;52.412;20.970;2023-03-04T05:39:10;99872.22;;;-0.47;100.00
36062;BME280;22123;52.412;20.970;2023-03-04T05:41:36;99919.19;;;-0.15;100.00
36062;BME280;22123;52.412;20.970;2023-03-04T05:44:02;100014.13;;;0.37;100.00
36062;BME280;22123;52.412;20.970;2023-03-04T05:46:28;99822.66;;;-0.67;100.00
36062;BME280;22123;52.412;20.970;2023-03-04T05:48:54;99940.91;;;0.02;100.00
36062;BME280;22123;52.412;20.970;2023-03-04T05:51:21;99939.91;;;0.03;100.00
36062;BME280;22123;52.412;20.970;2023-03-04T05:54:05;99865.41;;;-0.38;100.00
36062;BME280;22123;52.412;20.970;2023-03-04T05:56:31;99928.16;;;0.07;100.00
36062;BME280;22123;52.412;20.970;2023-03-04T05:58:58;99929.34;;;0.03;100.00
36062;BME280;22123;52.412;20.970;2023-03-04T06:01:24;99946.84;;;0.28;100.00
36062;BME280;22123;52.412;20.970;2023-03-04T06:03:50;99871.44;;;-0.13;100.00
36062;BME280;22123;52.412;20.970;2023-03-04T06:06:16;99978.88;;;0.59;100.00
36062;BME280;22123;52.412;20.970;2023-03-04T06:08:42;99871.84;;;-0.07;100.00
36062;BME280;22123;52.412;20.970;2023-03-04T06:11:08;99986.09;;;0.57;100.00
36062;BME280;22123;52.412;20.970;2023-03-04T06:13:34;99920.22;;;0.18;100.00
36062;BME280;22123;52.412;20.970;2023-03-04T06:16:00;99791.66;;;-0.54;100.00
36062;BME280;22123;52.412;20.970;2023-03-04T06:18:27;99849.66;;;-0.28;100.00
36062;BME280;22123;52.412;20.970;2023-03-04T06:20:57;99940.69;;;0.39;100.00
36062;BME280;22123;52.412;20.970;2023-03-04T06:23:24;99971.88;;;0.69;100.00
36062;BME280;22123;52.412;20.970;2023-03-04T06:25:54;99903.03;;;0.24;100.00
36062;BME280;22123;52.412;20.970;2023-03-04T06:28:20;99849.47;;;-0.03;100.00
36062;BME280;22123;52.412;20.970;2023-03-04T06:30:46;99925.06;;;0.36;100.00
36062;BME280;22123;52.412;20.970;2023-03-04T06:33:12;99990.69;;;0.77;100.00
36062;BME280;22123;52.412;20.970;2023-03-04T06:35:38;99857.03;;;0.02;100.00
36062;BME280;22123;52.412;20.970;2023-03-04T06:38:04;99932.50;;;0.42;100.00
36062;BME280;22123;52.412;20.970;2023-03-04T06:40:30;99988.75;;;0.79;100.00
36062;BME280;22123;52.412;20.970;2023-03-04T06:42:56;99894.72;;;0.28;100.00
36062;BME280;22123;52.412;20.970;2023-03-04T06:45:22;99871.88;;;0.16;100.00
36062;BME280;22123;52.412;20.970;2023-03-04T06:47:47;99886.28;;;0.23;100.00
36062;BME280;22123;52.412;20.970;2023-03-04T06:50:13;99953.97;;;0.73;100.00
36062;BME280;22123;52.412;20.970;2023-03-04T06:52:39;99924.09;;;0.48;100.00
36062;BME280;22123;52.412;20.970;2023-03-04T06:55:06;99867.28;;;0.18;100.00
36062;BME280;22123;52.412;20.970;2023-03-04T06:57:32;99865.59;;;0.17;100.00
36062;BME280;22123;52.412;20.970;2023-03-04T06:59:58;99802.19;;;-0.19;100.00
36062;BME280;22123;52.412;20.970;2023-03-04T07:02:23;99877.00;;;0.29;100.00
36062;BME280;22123;52.412;20.970;2023-03-04T07:04:49;99899.91;;;0.41;100.00
36062;BME280;22123;52.412;20.970;2023-03-04T07:07:15;99987.28;;;0.98;100.00
36062;BME280;22123;52.412;20.970;2023-03-04T07:09:43;99780.19;;;-0.30;100.00
36062;BME280;22123;52.412;20.970;2023-03-04T07:12:09;99818.16;;;-0.09;100.00
36062;BME280;22123;52.412;20.970;2023-03-04T07:14:35;99929.88;;;0.53;100.00
36062;BME280;22123;52.412;20.970;2023-03-04T07:17:01;99884.94;;;0.29;100.00
36062;BME280;22123;52.412;20.970;2023-03-04T07:19:40;99941.03;;;0.68;100.00
36062;BME280;22123;52.412;20.970;2023-03-04T07:22:06;99828.28;;;-0.14;100.00
36062;BME280;22123;52.412;20.970;2023-03-04T07:24:32;99771.13;;;-0.39;100.00
36062;BME280;22123;52.412;20.970;2023-03-04T07:26:58;99810.00;;;-0.17;100.00
36062;BME280;22123;52.412;20.970;2023-03-04T07:29:24;99887.84;;;0.37;100.00
36062;BME280;22123;52.412;20.970;2023-03-04T07:31:50;99914.09;;;0.51;100.00
36062;BME280;22123;52.412;20.970;2023-03-04T07:34:16;99840.94;;;0.16;100.00
36062;BME280;22123;52.412;20.970;2023-03-04T07:36:42;99921.41;;;0.71;100.00
36062;BME280;22123;52.412;20.970;2023-03-04T07:39:09;99919.72;;;0.69;100.00
36062;BME280;22123;52.412;20.970;2023-03-04T07:41:35;99888.94;;;0.57;100.00
36062;BME280;22123;52.412;20.970;2023-03-04T07:44:02;99715.25;;;-0.46;100.00
36062;BME280;22123;52.412;20.970;2023-03-04T07:46:28;99903.97;;;0.68;100.00
36062;BME280;22123;52.412;20.970;2023-03-04T07:48:55;99911.91;;;0.79;100.00
36062;BME280;22123;52.412;20.970;2023-03-04T07:51:23;99962.34;;;1.12;100.00
36062;BME280;22123;52.412;20.970;2023-03-04T07:53:52;99917.69;;;0.84;100.00
36062;BME280;22123;52.412;20.970;2023-03-04T07:56:22;99921.28;;;0.83;100.00
36062;BME280;22123;52.412;20.970;2023-03-04T07:58:49;99878.78;;;0.74;100.00
36062;BME280;22123;52.412;20.970;2023-03-04T08:01:17;99887.78;;;0.82;100.00
36062;BME280;22123;52.412;20.970;2023-03-04T08:03:44;99730.84;;;0.03;100.00
36062;BME280;22123;52.412;20.970;2023-03-04T08:06:13;99896.91;;;1.01;100.00
36062;BME280;22123;52.412;20.970;2023-03-04T08:08:39;99843.03;;;0.68;100.00
36062;BME280;22123;52.412;20.970;2023-03-04T08:11:07;99939.56;;;1.42;100.00
36062;BME280;22123;52.412;20.970;2023-03-04T08:13:34;99807.56;;;0.48;100.00
36062;BME280;22123;52.412;20.970;2023-03-04T08:16:00;99835.56;;;0.73;100.00
36062;BME280;22123;52.412;20.970;2023-03-04T08:18:26;99945.22;;;1.48;100.00
36062;BME280;22123;52.412;20.970;2023-03-04T08:20:52;99812.09;;;0.68;100.00
36062;BME280;22123;52.412;20.970;2023-03-04T08:23:18;99941.34;;;1.52;100.00
36062;BME280;22123;52.412;20.970;2023-03-04T08:25:45;99943.16;;;1.52;100.00
36062;BME280;22123;52.412;20.970;2023-03-04T08:28:11;99789.09;;;0.58;100.00
36062;BME280;22123;52.412;20.970;2023-03-04T08:30:38;99934.38;;;1.51;100.00
36062;BME280;22123;52.412;20.970;2023-03-04T08:33:04;99945.19;;;1.60;100.00
36062;BME280;22123;52.412;20.970;2023-03-04T08:35:30;99780.75;;;0.74;100.00
36062;BME280;22123;52.412;20.970;2023-03-04T08:37:56;99920.66;;;1.67;100.00
36062;BME280;22123;52.412;20.970;2023-03-04T08:40:22;99759.38;;;0.54;100.00
36062;BME280;22123;52.412;20.970;2023-03-04T08:42:48;99869.25;;;1.26;100.00
36062;BME280;22123;52.412;20.970;2023-03-04T08:45:14;99821.69;;;1.13;100.00
36062;BME280;22123;52.412;20.970;2023-03-04T08:47:40;99891.78;;;1.53;100.00
36062;BME280;22123;52.412;20.970;2023-03-04T08:50:06;99853.09;;;1.29;100.00
36062;BME280;22123;52.412;20.970;2023-03-04T08:52:32;99810.22;;;1.13;100.00
36062;BME280;22123;52.412;20.970;2023-03-04T08:54:58;99786.53;;;1.00;100.00
36062;BME280;22123;52.412;20.970;2023-03-04T08:57:24;99799.34;;;0.95;100.00
36062;BME280;22123;52.412;20.970;2023-03-04T08:59:50;99790.88;;;1.01;100.00
36062;BME280;22123;52.412;20.970;2023-03-04T09:02:16;99802.75;;;1.18;100.00
36062;BME280;22123;52.412;20.970;2023-03-04T09:04:42;99809.09;;;1.27;100.00
36062;BME280;22123;52.412;20.970;2023-03-04T09:07:07;99917.03;;;2.11;100.00
36062;BME280;22123;52.412;20.970;2023-03-04T09:09:34;99807.28;;;1.48;100.00
36062;BME280;22123;52.412;20.970;2023-03-04T09:11:59;99839.50;;;1.65;100.00
36062;BME280;22123;52.412;20.970;2023-03-04T09:14:25;99691.84;;;1.02;100.00
36062;BME280;22123;52.412;20.970;2023-03-04T09:16:52;99842.09;;;2.07;100.00
36062;BME280;22123;52.412;20.970;2023-03-04T09:19:18;99826.13;;;1.97;100.00
36062;BME280;22123;52.412;20.970;2023-03-04T09:21:44;99819.69;;;1.90;100.00
36062;BME280;22123;52.412;20.970;2023-03-04T09:24:09;99855.28;;;2.18;100.00
36062;BME280;22123;52.412;20.970;2023-03-04T09:26:35;99772.81;;;1.79;100.00
36062;BME280;22123;52.412;20.970;2023-03-04T09:29:02;99856.63;;;2.34;100.00
36062;BME280;22123;52.412;20.970;2023-03-04T09:31:28;99663.78;;;0.99;100.00
36062;BME280;22123;52.412;20.970;2023-03-04T09:33:56;99900.69;;;2.36;100.00
36062;BME280;22123;52.412;20.970;2023-03-04T09:36:22;99783.47;;;1.58;100.00
36062;BME280;22123;52.412;20.970;2023-03-04T09:38:48;99769.66;;;1.64;100.00
36062;BME280;22123;52.412;20.970;2023-03-04T09:41:17;99904.91;;;2.49;100.00
36062;BME280;22123;52.412;20.970;2023-03-04T09:43:45;99767.28;;;1.61;100.00
36062;BME280;22123;52.412;20.970;2023-03-04T09:46:18;99808.19;;;1.89;100.00
36062;BME280;22123;52.412;20.970;2023-03-04T09:48:51;99850.59;;;2.01;100.00
36062;BME280;22123;52.412;20.970;2023-03-04T09:56:28;99872.97;;;2.29;100.00
36062;BME280;22123;52.412;20.970;2023-03-04T09:58:56;99877.69;;;2.25;100.00
36062;BME280;22123;52.412;20.970;2023-03-04T10:01:39;99743.94;;;1.34;100.00
36062;BME280;22123;52.412;20.970;2023-03-04T10:04:15;99881.28;;;2.15;100.00
36062;BME280;22123;52.412;20.970;2023-03-04T10:06:42;99701.34;;;1.04;100.00
36062;BME280;22123;52.412;20.970;2023-03-04T10:09:28;99713.94;;;1.12;100.00
36062;BME280;22123;52.412;20.970;2023-03-04T10:12:09;99856.38;;;2.06;100.00
36062;BME280;22123;52.412;20.970;2023-03-04T10:14:37;99865.63;;;2.12;100.00
36062;BME280;22123;52.412;20.970;2023-03-04T10:17:12;99868.13;;;2.13;100.00
36062;BME280;22123;52.412;20.970;2023-03-04T10:22:49;99869.50;;;2.07;100.00
36062;BME280;22123;52.412;20.970;2023-03-04T10:25:21;99862.16;;;1.90;100.00
36062;BME280;22123;52.412;20.970;2023-03-04T10:27:54;99663.72;;;0.68;100.00
36062;BME280;22123;52.412;20.970;2023-03-04T10:30:54;99862.47;;;1.76;100.00
36062;BME280;22123;52.412;20.970;2023-03-04T10:33:30;99796.09;;;1.24;100.00
36062;BME280;22123;52.412;20.970;2023-03-04T10:36:21;99715.81;;;0.79;100.00
36062;BME280;22123;52.412;20.970;2023-03-04T10:39:12;99815.03;;;1.40;100.00
36062;BME280;22123;52.412;20.970;2023-03-04T10:41:45;99717.88;;;0.76;100.00
36062;BME280;22123;52.412;20.970;2023-03-04T10:44:17;99720.53;;;0.76;100.00
36062;BME280;22123;52.412;20.970;2023-03-04T10:46:46;99857.41;;;1.51;100.00
36062;BME280;22123;52.412;20.970;2023-03-04T10:49:14;99778.09;;;1.06;100.00
36062;BME280;22123;52.412;20.970;2023-03-04T10:51:46;99695.81;;;0.54;100.00
36062;BME280;22123;52.412;20.970;2023-03-04T10:57:02;99843.66;;;1.36;100.00
36062;BME280;22123;52.412;20.970;2023-03-04T10:59:46;99836.06;;;1.32;100.00
36062;BME280;22123;52.412;20.970;2023-03-04T11:02:28;99834.38;;;1.31;100.00
36062;BME280;22123;52.412;20.970;2023-03-04T11:07:23;99835.72;;;1.25;100.00
36062;BME280;22123;52.412;20.970;2023-03-04T11:09:50;99758.53;;;0.54;100.00
36062;BME280;22123;52.412;20.970;2023-03-04T11:12:19;99841.28;;;1.22;100.00
36062;BME280;22123;52.412;20.970;2023-03-04T11:14:48;99810.66;;;0.97;100.00
36062;BME280;22123;52.412;20.970;2023-03-04T11:19:46;99831.94;;;1.07;100.00
36062;BME280;22123;52.412;20.970;2023-03-04T11:22:17;99716.63;;;0.26;100.00
36062;BME280;22123;52.412;20.970;2023-03-04T11:24:54;99738.84;;;0.35;100.00
36062;BME280;22123;52.412;20.970;2023-03-04T11:27:37;99716.75;;;0.25;100.00
36062;BME280;22123;52.412;20.970;2023-03-04T11:32:59;99673.38;;;-0.07;100.00
36062;BME280;22123;52.412;20.970;2023-03-04T11:35:46;99720.13;;;0.15;100.00
36062;BME280;22123;52.412;20.970;2023-03-04T11:38:18;99696.81;;;-0.13;100.00
36062;BME280;22123;52.412;20.970;2023-03-04T11:40:56;99674.59;;;-0.33;100.00
36062;BME280;22123;52.412;20.970;2023-03-04T11:43:49;99832.78;;;0.63;100.00
36062;BME280;22123;52.412;20.970;2023-03-04T11:46:32;99831.59;;;0.56;100.00
36062;BME280;22123;52.412;20.970;2023-03-04T11:57:55;99827.38;;;0.54;100.00
36062;BME280;22123;52.412;20.970;2023-03-04T12:00:31;99817.88;;;0.62;100.00
36062;BME280;22123;52.412;20.970;2023-03-04T12:22:48;99793.03;;;2.42;100.00
36062;BME280;22123;52.412;20.970;2023-03-04T12:25:24;99796.41;;;2.54;100.00
36062;BME280;22123;52.412;20.970;2023-03-04T12:44:07;99700.19;;;2.40;100.00
36062;BME280;22123;52.412;20.970;2023-03-04T12:49:28;99781.06;;;2.77;100.00
36062;BME280;22123;52.412;20.970;2023-03-04T12:52:01;99789.31;;;2.74;100.00
36062;BME280;22123;52.412;20.970;2023-03-04T12:54:36;99784.81;;;2.74;100.00
36062;BME280;22123;52.412;20.970;2023-03-04T12:57:10;99741.28;;;2.46;100.00
36062;BME280;22123;52.412;20.970;2023-03-04T12:59:43;99691.47;;;2.09;100.00
36062;BME280;22123;52.412;20.970;2023-03-04T13:07:53;99789.44;;;2.63;100.00
36062;BME280;22123;52.412;20.970;2023-03-04T13:10:20;99762.53;;;2.36;100.00
36062;BME280;22123;52.412;20.970;2023-03-04T13:12:54;99811.34;;;2.45;100.00
36062;BME280;22123;52.412;20.970;2023-03-04T13:17:57;99725.66;;;1.62;100.00
36062;BME280;22123;52.412;20.970;2023-03-04T13:22:57;99792.72;;;1.64;100.00
36062;BME280;22123;52.412;20.970;2023-03-04T13:28:16;99732.56;;;1.01;100.00
36062;BME280;22123;52.412;20.970;2023-03-04T13:43:43;99782.63;;;1.36;100.00
36062;BME280;22123;52.412;20.970;2023-03-04T14:01:31;99529.00;;;0.95;100.00
36062;BME280;22123;52.412;20.970;2023-03-04T14:03:58;99612.91;;;1.87;100.00
36062;BME280;22123;52.412;20.970;2023-03-04T14:06:29;99694.59;;;2.83;100.00
36062;BME280;22123;52.412;20.970;2023-03-04T14:08:56;99701.13;;;3.18;100.00
36062;BME280;22123;52.412;20.970;2023-03-04T14:11:33;99740.06;;;3.56;100.00
36062;BME280;22123;52.412;20.970;2023-03-04T14:14:03;99735.44;;;3.68;100.00
36062;BME280;22123;52.412;20.970;2023-03-04T14:16:32;99668.94;;;3.11;100.00
36062;BME280;22123;52.412;20.970;2023-03-04T14:19:03;99781.25;;;3.62;100.00
36062;BME280;22123;52.412;20.970;2023-03-04T14:21:30;99497.47;;;1.52;100.00
36062;BME280;22123;52.412;20.970;2023-03-04T14:24:01;99786.53;;;3.15;100.00
36062;BME280;22123;52.412;20.970;2023-03-04T14:26:27;99676.94;;;2.23;100.00
36062;BME280;22123;52.412;20.970;2023-03-04T14:28:53;99607.81;;;1.64;100.00
36062;BME280;22123;52.412;20.970;2023-03-04T14:31:21;99791.25;;;2.72;100.00
36062;BME280;22123;52.412;20.970;2023-03-04T14:33:53;99698.56;;;1.99;100.00
36062;BME280;22123;52.412;20.970;2023-03-04T14:36:21;99794.31;;;2.57;100.00
36062;BME280;22123;52.412;20.970;2023-03-04T14:38:59;99760.69;;;2.27;100.00
36062;BME280;22123;52.412;20.970;2023-03-04T14:41:38;99704.13;;;1.86;100.00
36062;BME280;22123;52.412;20.970;2023-03-04T14:46:55;99708.03;;;1.51;100.00
36062;BME280;22123;52.412;20.970;2023-03-04T14:49:23;99771.84;;;1.80;100.00